sensor_id;sensor_type;location;lat;lon;timestamp;temperature;humidity
12634;DHT22;6382;48.614;8.880;2023-09-18T00:01:18;16.80;99.90
12634;DHT22;6382;48.614;8.880;2023-09-18T00:03:46;16.80;99.90
12634;DHT22;6382;48.614;8.880;2023-09-18T00:06:14;16.90;99.90
12634;DHT22;6382;48.614;8.880;2023-09-18T00:08:40;16.80;99.90
12634;DHT22;6382;48.614;8.880;2023-09-18T00:11:07;16.80;99.90
12634;DHT22;6382;48.614;8.880;2023-09-18T00:13:34;16.80;99.90
12634;DHT22;6382;48.614;8.880;2023-09-18T00:16:01;16.80;99.90
12634;DHT22;6382;48.614;8.880;2023-09-18T00:18:28;16.80;99.90
12634;DHT22;6382;48.614;8.880;2023-09-18T00:20:54;16.80;99.90
12634;DHT22;6382;48.614;8.880;2023-09-18T00:23:21;16.80;99.90
12634;DHT22;6382;48.614;8.880;2023-09-18T00:25:48;16.80;99.90
12634;DHT22;6382;48.614;8.880;2023-09-18T00:28:15;16.80;99.90
12634;DHT22;6382;48.614;8.880;2023-09-18T00:30:42;16.80;99.90
12634;DHT22;6382;48.614;8.880;2023-09-18T00:33:13;16.80;99.90
12634;DHT22;6382;48.614;8.880;2023-09-18T00:35:40;16.80;99.90
12634;DHT22;6382;48.614;8.880;2023-09-18T00:38:06;16.80;99.90
12634;DHT22;6382;48.614;8.880;2023-09-18T00:40:34;16.90;99.90
12634;DHT22;6382;48.614;8.880;2023-09-18T00:43:01;16.90;99.90
12634;DHT22;6382;48.614;8.880;2023-09-18T00:45:29;16.80;99.90
12634;DHT22;6382;48.614;8.880;2023-09-18T00:47:56;16.90;99.90
12634;DHT22;6382;48.614;8.880;2023-09-18T00:50:23;16.90;99.90
12634;DHT22;6382;48.614;8.880;2023-09-18T00:52:50;17.00;99.90
12634;DHT22;6382;48.614;8.880;2023-09-18T00:55:17;17.10;99.90
12634;DHT22;6382;48.614;8.880;2023-09-18T00:57:44;17.20;99.90
12634;DHT22;6382;48.614;8.880;2023-09-18T01:00:12;17.30;99.90
12634;DHT22;6382;48.614;8.880;2023-09-18T01:02:42;17.40;99.90
12634;DHT22;6382;48.614;8.880;2023-09-18T01:05:09;17.50;99.90
12634;DHT22;6382;48.614;8.880;2023-09-18T01:07:36;17.60;99.90
12634;DHT22;6382;48.614;8.880;2023-09-18T01:10:03;17.60;99.90
12634;DHT22;6382;48.614;8.880;2023-09-18T01:12:33;17.70;99.90
12634;DHT22;6382;48.614;8.880;2023-09-18T01:15:22;17.80;99.90
12634;DHT22;6382;48.614;8.880;2023-09-18T01:17:50;17.80;99.90
12634;DHT22;6382;48.614;8.880;2023-09-18T01:20:17;17.80;99.90
12634;DHT22;6382;48.614;8.880;2023-09-18T01:22:44;17.80;99.90
12634;DHT22;6382;48.614;8.880;2023-09-18T01:25:11;17.80;99.90
12634;DHT22;6382;48.614;8.880;2023-09-18T01:27:37;17.80;99.90
12634;DHT22;6382;48.614;8.880;2023-09-18T01:30:04;17.70;99.90
12634;DHT22;6382;48.614;8.880;2023-09-18T01:32:31;17.70;99.90
12634;DHT22;6382;48.614;8.880;2023-09-18T01:34:59;17.60;99.90
12634;DHT22;6382;48.614;8.880;2023-09-18T01:37:27;17.70;99.90
12634;DHT22;6382;48.614;8.880;2023-09-18T01:39:54;17.70;99.90
12634;DHT22;6382;48.614;8.880;2023-09-18T01:42:24;17.80;99.90
12634;DHT22;6382;48.614;8.880;2023-09-18T01:44:52;18.00;99.90
12634;DHT22;6382;48.614;8.880;2023-09-18T01:47:19;18.10;99.90
12634;DHT22;6382;48.614;8.880;2023-09-18T01:49:47;18.20;99.90
12634;DHT22;6382;48.614;8.880;2023-09-18T01:52:14;18.00;99.90
12634;DHT22;6382;48.614;8.880;2023-09-18T01:54:41;17.80;99.90
12634;DHT22;6382;48.614;8.880;2023-09-18T01:57:08;17.70;99.90
12634;DHT22;6382;48.614;8.880;2023-09-18T01:59:35;17.50;99.90
12634;DHT22;6382;48.614;8.880;2023-09-18T02:02:04;17.40;99.90
12634;DHT22;6382;48.614;8.880;2023-09-18T02:04:34;17.40;99.90
12634;DHT22;6382;48.614;8.880;2023-09-18T02:07:20;17.40;99.90
12634;DHT22;6382;48.614;8.880;2023-09-18T02:09:47;17.30;99.90
12634;DHT22;6382;48.614;8.880;2023-09-18T02:12:16;17.30;99.90
12634;DHT22;6382;48.614;8.880;2023-09-18T02:14:45;17.30;99.90
12634;DHT22;6382;48.614;8.880;2023-09-18T02:17:11;17.30;99.90
12634;DHT22;6382;48.614;8.880;2023-09-18T02:19:38;17.30;99.90
12634;DHT22;6382;48.614;8.880;2023-09-18T02:22:05;17.20;99.90
12634;DHT22;6382;48.614;8.880;2023-09-18T02:24:33;17.20;99.90
12634;DHT22;6382;48.614;8.880;2023-09-18T02:27:03;17.30;99.90
12634;DHT22;6382;48.614;8.880;2023-09-18T02:29:30;17.30;99.90
12634;DHT22;6382;48.614;8.880;2023-09-18T02:31:57;17.20;99.90
12634;DHT22;6382;48.614;8.880;2023-09-18T02:34:24;17.10;99.90
12634;DHT22;6382;48.614;8.880;2023-09-18T02:36:51;17.10;99.90
12634;DHT22;6382;48.614;8.880;2023-09-18T02:39:18;17.10;99.90
12634;DHT22;6382;48.614;8.880;2023-09-18T02:41:44;17.10;99.90
12634;DHT22;6382;48.614;8.880;2023-09-18T02:44:11;17.10;99.90
12634;DHT22;6382;48.614;8.880;2023-09-18T02:46:38;17.20;99.90
12634;DHT22;6382;48.614;8.880;2023-09-18T02:49:05;17.20;99.90
12634;DHT22;6382;48.614;8.880;2023-09-18T02:51:32;17.20;99.90
12634;DHT22;6382;48.614;8.880;2023-09-18T02:53:59;17.40;99.90
12634;DHT22;6382;48.614;8.880;2023-09-18T02:56:26;17.40;99.90
12634;DHT22;6382;48.614;8.880;2023-09-18T02:58:53;17.40;99.90
12634;DHT22;6382;48.614;8.880;2023-09-18T03:01:20;17.50;99.90
12634;DHT22;6382;48.614;8.880;2023-09-18T03:03:48;17.50;99.90
12634;DHT22;6382;48.614;8.880;2023-09-18T03:06:14;17.60;99.90
12634;DHT22;6382;48.614;8.880;2023-09-18T03:08:42;17.60;99.90
12634;DHT22;6382;48.614;8.880;2023-09-18T03:11:12;17.60;99.90
12634;DHT22;6382;48.614;8.880;2023-09-18T03:13:43;17.60;99.90
12634;DHT22;6382;48.614;8.880;2023-09-18T03:16:12;17.50;99.90
12634;DHT22;6382;48.614;8.880;2023-09-18T03:18:39;17.50;99.90
12634;DHT22;6382;48.614;8.880;2023-09-18T03:21:06;17.50;99.90
12634;DHT22;6382;48.614;8.880;2023-09-18T03:23:33;17.40;99.90
12634;DHT22;6382;48.614;8.880;2023-09-18T03:26:00;17.40;99.90
12634;DHT22;6382;48.614;8.880;2023-09-18T03:28:27;17.40;99.90
12634;DHT22;6382;48.614;8.880;2023-09-18T03:30:54;17.40;99.90
12634;DHT22;6382;48.614;8.880;2023-09-18T03:33:21;17.40;99.90
12634;DHT22;6382;48.614;8.880;2023-09-18T03:35:49;17.30;99.90
12634;DHT22;6382;48.614;8.880;2023-09-18T03:38:16;17.40;99.90
12634;DHT22;6382;48.614;8.880;2023-09-18T03:40:43;17.40;99.90
12634;DHT22;6382;48.614;8.880;2023-09-18T03:43:11;17.50;99.90
12634;DHT22;6382;48.614;8.880;2023-09-18T03:45:39;17.50;99.90
12634;DHT22;6382;48.614;8.880;2023-09-18T03:48:09;17.60;99.90
12634;DHT22;6382;48.614;8.880;2023-09-18T03:50:36;17.60;99.90
12634;DHT22;6382;48.614;8.880;2023-09-18T03:53:03;17.70;99.90
12634;DHT22;6382;48.614;8.880;2023-09-18T03:55:30;17.70;99.90
12634;DHT22;6382;48.614;8.880;2023-09-18T03:57:57;17.60;99.90
12634;DHT22;6382;48.614;8.880;2023-09-18T04:00:24;17.70;99.90
12634;DHT22;6382;48.614;8.880;2023-09-18T04:02:50;17.80;99.90
12634;DHT22;6382;48.614;8.880;2023-09-18T04:05:18;18.10;99.90
12634;DHT22;6382;48.614;8.880;2023-09-18T04:07:45;18.20;99.90
12634;DHT22;6382;48.614;8.880;2023-09-18T04:10:14;18.30;99.90
12634;DHT22;6382;48.614;8.880;2023-09-18T04:12:46;18.40;99.90
12634;DHT22;6382;48.614;8.880;2023-09-18T04:15:16;18.40;99.90
12634;DHT22;6382;48.614;8.880;2023-09-18T04:17:44;18.50;99.90
12634;DHT22;6382;48.614;8.880;2023-09-18T04:20:11;18.60;99.90
12634;DHT22;6382;48.614;8.880;2023-09-18T04:22:43;18.60;99.90
12634;DHT22;6382;48.614;8.880;2023-09-18T04:25:11;18.60;99.90
12634;DHT22;6382;48.614;8.880;2023-09-18T04:27:38;18.50;99.90
12634;DHT22;6382;48.614;8.880;2023-09-18T04:30:06;18.50;99.90
12634;DHT22;6382;48.614;8.880;2023-09-18T04:32:33;18.40;99.90
12634;DHT22;6382;48.614;8.880;2023-09-18T04:35:00;19.30;99.90
12634;DHT22;6382;48.614;8.880;2023-09-18T04:37:26;18.40;99.90
12634;DHT22;6382;48.614;8.880;2023-09-18T04:39:53;18.30;99.90
12634;DHT22;6382;48.614;8.880;2023-09-18T04:42:20;18.30;99.90
12634;DHT22;6382;48.614;8.880;2023-09-18T04:44:47;18.20;99.90
12634;DHT22;6382;48.614;8.880;2023-09-18T04:47:13;18.20;99.90
12634;DHT22;6382;48.614;8.880;2023-09-18T04:49:40;18.10;99.90
12634;DHT22;6382;48.614;8.880;2023-09-18T04:52:07;18.10;99.90
12634;DHT22;6382;48.614;8.880;2023-09-18T04:54:34;18.00;99.90
12634;DHT22;6382;48.614;8.880;2023-09-18T04:57:01;18.00;99.90
12634;DHT22;6382;48.614;8.880;2023-09-18T04:59:28;18.00;99.90
12634;DHT22;6382;48.614;8.880;2023-09-18T05:01:55;18.00;99.90
12634;DHT22;6382;48.614;8.880;2023-09-18T05:04:22;18.00;99.90
12634;DHT22;6382;48.614;8.880;2023-09-18T05:06:49;18.10;99.90
12634;DHT22;6382;48.614;8.880;2023-09-18T05:09:16;18.10;99.90
12634;DHT22;6382;48.614;8.880;2023-09-18T05:11:42;18.10;99.90
12634;DHT22;6382;48.614;8.880;2023-09-18T05:14:10;18.10;99.90
12634;DHT22;6382;48.614;8.880;2023-09-18T05:16:37;18.10;99.90
12634;DHT22;6382;48.614;8.880;2023-09-18T05:19:04;18.10;99.90
12634;DHT22;6382;48.614;8.880;2023-09-18T05:21:31;18.10;99.90
12634;DHT22;6382;48.614;8.880;2023-09-18T05:23:57;18.10;99.90
12634;DHT22;6382;48.614;8.880;2023-09-18T05:26:24;18.00;99.90
12634;DHT22;6382;48.614;8.880;2023-09-18T05:28:53;18.10;99.90
12634;DHT22;6382;48.614;8.880;2023-09-18T05:31:21;18.10;99.90
12634;DHT22;6382;48.614;8.880;2023-09-18T05:33:48;18.10;99.90
12634;DHT22;6382;48.614;8.880;2023-09-18T05:36:15;18.00;99.90
12634;DHT22;6382;48.614;8.880;2023-09-18T05:38:42;18.00;99.90
12634;DHT22;6382;48.614;8.880;2023-09-18T05:41:10;18.00;99.90
12634;DHT22;6382;48.614;8.880;2023-09-18T05:43:37;18.00;99.90
12634;DHT22;6382;48.614;8.880;2023-09-18T05:46:03;18.00;99.90
12634;DHT22;6382;48.614;8.880;2023-09-18T05:48:30;18.10;99.90
12634;DHT22;6382;48.614;8.880;2023-09-18T05:50:57;18.00;99.90
12634;DHT22;6382;48.614;8.880;2023-09-18T05:53:25;18.10;99.90
12634;DHT22;6382;48.614;8.880;2023-09-18T05:55:51;18.00;99.90
12634;DHT22;6382;48.614;8.880;2023-09-18T05:58:18;18.10;99.90
12634;DHT22;6382;48.614;8.880;2023-09-18T06:00:49;18.10;99.90
12634;DHT22;6382;48.614;8.880;2023-09-18T06:03:16;18.10;99.90
12634;DHT22;6382;48.614;8.880;2023-09-18T06:05:46;18.10;99.90
12634;DHT22;6382;48.614;8.880;2023-09-18T06:08:13;18.10;99.90
12634;DHT22;6382;48.614;8.880;2023-09-18T06:10:42;18.10;99.90
12634;DHT22;6382;48.614;8.880;2023-09-18T06:13:09;18.10;99.90
12634;DHT22;6382;48.614;8.880;2023-09-18T06:15:37;18.10;99.90
12634;DHT22;6382;48.614;8.880;2023-09-18T06:18:03;18.00;99.90
12634;DHT22;6382;48.614;8.880;2023-09-18T06:20:31;18.10;99.90
12634;DHT22;6382;48.614;8.880;2023-09-18T06:22:57;18.10;99.90
12634;DHT22;6382;48.614;8.880;2023-09-18T06:25:24;18.20;99.90
12634;DHT22;6382;48.614;8.880;2023-09-18T06:27:51;18.10;99.90
12634;DHT22;6382;48.614;8.880;2023-09-18T06:30:18;18.20;99.90
12634;DHT22;6382;48.614;8.880;2023-09-18T06:32:45;18.30;99.90
12634;DHT22;6382;48.614;8.880;2023-09-18T06:35:12;18.20;99.90
12634;DHT22;6382;48.614;8.880;2023-09-18T06:37:39;18.30;99.90
12634;DHT22;6382;48.614;8.880;2023-09-18T06:40:06;18.30;99.90
12634;DHT22;6382;48.614;8.880;2023-09-18T06:42:33;18.30;99.90
12634;DHT22;6382;48.614;8.880;2023-09-18T06:45:00;18.30;99.90
12634;DHT22;6382;48.614;8.880;2023-09-18T06:47:28;18.20;99.90
12634;DHT22;6382;48.614;8.880;2023-09-18T06:49:55;18.30;99.90
12634;DHT22;6382;48.614;8.880;2023-09-18T06:52:22;18.30;99.90
12634;DHT22;6382;48.614;8.880;2023-09-18T06:54:48;18.30;99.90
12634;DHT22;6382;48.614;8.880;2023-09-18T06:57:15;18.30;99.90
12634;DHT22;6382;48.614;8.880;2023-09-18T06:59:42;18.40;99.90
12634;DHT22;6382;48.614;8.880;2023-09-18T07:02:09;18.50;99.90
12634;DHT22;6382;48.614;8.880;2023-09-18T07:04:36;18.50;99.90
12634;DHT22;6382;48.614;8.880;2023-09-18T07:07:12;18.50;99.90
12634;DHT22;6382;48.614;8.880;2023-09-18T07:09:40;18.60;99.90
12634;DHT22;6382;48.614;8.880;2023-09-18T07:12:28;18.70;99.90
12634;DHT22;6382;48.614;8.880;2023-09-18T07:14:54;18.70;99.90
12634;DHT22;6382;48.614;8.880;2023-09-18T07:17:21;18.70;99.90
12634;DHT22;6382;48.614;8.880;2023-09-18T07:19:48;18.70;99.90
12634;DHT22;6382;48.614;8.880;2023-09-18T07:22:15;18.70;99.90
12634;DHT22;6382;48.614;8.880;2023-09-18T07:24:42;18.70;99.90
12634;DHT22;6382;48.614;8.880;2023-09-18T07:27:12;18.80;99.90
12634;DHT22;6382;48.614;8.880;2023-09-18T07:29:39;18.80;99.90
12634;DHT22;6382;48.614;8.880;2023-09-18T07:32:06;18.70;99.90
12634;DHT22;6382;48.614;8.880;2023-09-18T07:34:33;18.80;99.90
12634;DHT22;6382;48.614;8.880;2023-09-18T07:37:01;18.80;99.90
12634;DHT22;6382;48.614;8.880;2023-09-18T07:39:28;18.80;99.90
12634;DHT22;6382;48.614;8.880;2023-09-18T07:41:56;18.80;99.90
12634;DHT22;6382;48.614;8.880;2023-09-18T07:44:23;18.80;99.90
12634;DHT22;6382;48.614;8.880;2023-09-18T07:46:50;18.90;99.90
12634;DHT22;6382;48.614;8.880;2023-09-18T07:49:17;18.90;99.90
12634;DHT22;6382;48.614;8.880;2023-09-18T07:51:44;19.00;99.90
12634;DHT22;6382;48.614;8.880;2023-09-18T07:54:13;19.00;99.90
12634;DHT22;6382;48.614;8.880;2023-09-18T07:56:40;19.00;99.90
12634;DHT22;6382;48.614;8.880;2023-09-18T07:59:07;19.00;99.90
12634;DHT22;6382;48.614;8.880;2023-09-18T08:01:37;19.00;99.90
12634;DHT22;6382;48.614;8.880;2023-09-18T08:04:03;18.90;99.90
12634;DHT22;6382;48.614;8.880;2023-09-18T08:06:32;18.90;99.90
12634;DHT22;6382;48.614;8.880;2023-09-18T08:09:00;18.90;99.90
12634;DHT22;6382;48.614;8.880;2023-09-18T08:11:26;18.90;99.90
12634;DHT22;6382;48.614;8.880;2023-09-18T08:13:53;18.90;99.90
12634;DHT22;6382;48.614;8.880;2023-09-18T08:16:20;18.90;99.90
12634;DHT22;6382;48.614;8.880;2023-09-18T08:18:47;18.90;99.90
12634;DHT22;6382;48.614;8.880;2023-09-18T08:21:15;18.80;99.90
12634;DHT22;6382;48.614;8.880;2023-09-18T08:23:43;18.70;99.90
12634;DHT22;6382;48.614;8.880;2023-09-18T08:26:10;18.70;99.90
12634;DHT22;6382;48.614;8.880;2023-09-18T08:28:37;18.60;99.90
12634;DHT22;6382;48.614;8.880;2023-09-18T08:31:10;18.50;99.90
12634;DHT22;6382;48.614;8.880;2023-09-18T08:33:37;18.50;99.90
12634;DHT22;6382;48.614;8.880;2023-09-18T08:36:04;18.40;99.90
12634;DHT22;6382;48.614;8.880;2023-09-18T08:38:31;18.40;99.90
12634;DHT22;6382;48.614;8.880;2023-09-18T08:40:58;18.40;99.90
12634;DHT22;6382;48.614;8.880;2023-09-18T08:43:25;18.30;99.90
12634;DHT22;6382;48.614;8.880;2023-09-18T08:45:53;18.30;99.90
12634;DHT22;6382;48.614;8.880;2023-09-18T08:48:20;18.30;99.90
12634;DHT22;6382;48.614;8.880;2023-09-18T08:50:48;18.20;99.90
12634;DHT22;6382;48.614;8.880;2023-09-18T08:53:15;18.20;99.90
12634;DHT22;6382;48.614;8.880;2023-09-18T08:55:42;18.20;99.90
12634;DHT22;6382;48.614;8.880;2023-09-18T08:58:10;18.10;99.90
12634;DHT22;6382;48.614;8.880;2023-09-18T09:00:37;18.00;99.90
12634;DHT22;6382;48.614;8.880;2023-09-18T09:03:04;18.00;99.90
12634;DHT22;6382;48.614;8.880;2023-09-18T09:05:31;18.00;99.90
12634;DHT22;6382;48.614;8.880;2023-09-18T09:07:58;17.90;99.90
12634;DHT22;6382;48.614;8.880;2023-09-18T09:10:26;18.00;99.90
12634;DHT22;6382;48.614;8.880;2023-09-18T09:12:54;18.00;99.90
12634;DHT22;6382;48.614;8.880;2023-09-18T09:15:22;18.00;99.90
12634;DHT22;6382;48.614;8.880;2023-09-18T09:17:51;18.00;99.90
12634;DHT22;6382;48.614;8.880;2023-09-18T09:20:18;17.90;99.90
12634;DHT22;6382;48.614;8.880;2023-09-18T09:22:47;17.90;99.90
12634;DHT22;6382;48.614;8.880;2023-09-18T09:27:48;17.90;99.90
12634;DHT22;6382;48.614;8.880;2023-09-18T09:30:22;18.00;99.90
12634;DHT22;6382;48.614;8.880;2023-09-18T09:32:50;18.00;99.90
12634;DHT22;6382;48.614;8.880;2023-09-18T09:35:21;18.10;99.90
12634;DHT22;6382;48.614;8.880;2023-09-18T09:37:51;18.20;99.90
12634;DHT22;6382;48.614;8.880;2023-09-18T09:40:19;18.30;99.90
12634;DHT22;6382;48.614;8.880;2023-09-18T09:42:46;18.40;99.90
12634;DHT22;6382;48.614;8.880;2023-09-18T09:45:14;18.50;99.90
12634;DHT22;6382;48.614;8.880;2023-09-18T09:47:44;18.60;99.90
12634;DHT22;6382;48.614;8.880;2023-09-18T09:50:12;18.60;99.90
12634;DHT22;6382;48.614;8.880;2023-09-18T09:52:40;18.70;99.90
12634;DHT22;6382;48.614;8.880;2023-09-18T09:55:19;18.80;99.90
12634;DHT22;6382;48.614;8.880;2023-09-18T09:57:51;18.80;99.90
12634;DHT22;6382;48.614;8.880;2023-09-18T10:00:18;18.90;99.90
12634;DHT22;6382;48.614;8.880;2023-09-18T10:02:55;18.90;99.90
12634;DHT22;6382;48.614;8.880;2023-09-18T10:05:24;18.90;99.90
12634;DHT22;6382;48.614;8.880;2023-09-18T10:07:57;18.80;99.90
12634;DHT22;6382;48.614;8.880;2023-09-18T10:10:35;18.70;99.90
12634;DHT22;6382;48.614;8.880;2023-09-18T10:13:04;18.60;99.90
12634;DHT22;6382;48.614;8.880;2023-09-18T10:15:34;18.60;99.90
12634;DHT22;6382;48.614;8.880;2023-09-18T10:18:06;18.50;99.90
12634;DHT22;6382;48.614;8.880;2023-09-18T10:20:37;18.50;99.90
12634;DHT22;6382;48.614;8.880;2023-09-18T10:23:03;18.50;99.90
12634;DHT22;6382;48.614;8.880;2023-09-18T10:25:32;18.50;99.90
12634;DHT22;6382;48.614;8.880;2023-09-18T10:27:58;18.50;99.90
12634;DHT22;6382;48.614;8.880;2023-09-18T10:30:32;18.50;99.90
12634;DHT22;6382;48.614;8.880;2023-09-18T10:33:00;18.50;99.90
12634;DHT22;6382;48.614;8.880;2023-09-18T10:35:28;18.50;99.90
12634;DHT22;6382;48.614;8.880;2023-09-18T10:37:55;18.50;99.90
12634;DHT22;6382;48.614;8.880;2023-09-18T10:40:23;18.50;99.90
12634;DHT22;6382;48.614;8.880;2023-09-18T10:42:51;18.50;99.90
12634;DHT22;6382;48.614;8.880;2023-09-18T10:45:18;18.50;99.90
12634;DHT22;6382;48.614;8.880;2023-09-18T10:47:46;18.50;99.90
12634;DHT22;6382;48.614;8.880;2023-09-18T10:50:24;18.50;99.90
12634;DHT22;6382;48.614;8.880;2023-09-18T10:52:52;18.50;99.90
12634;DHT22;6382;48.614;8.880;2023-09-18T10:55:19;18.50;99.90
12634;DHT22;6382;48.614;8.880;2023-09-18T10:57:51;18.50;99.90
12634;DHT22;6382;48.614;8.880;2023-09-18T11:00:19;18.50;99.90
12634;DHT22;6382;48.614;8.880;2023-09-18T11:02:50;18.50;99.90
12634;DHT22;6382;48.614;8.880;2023-09-18T11:05:30;18.50;99.90
12634;DHT22;6382;48.614;8.880;2023-09-18T11:13:38;18.50;99.90
12634;DHT22;6382;48.614;8.880;2023-09-18T11:18:52;18.50;99.90
12634;DHT22;6382;48.614;8.880;2023-09-18T11:23:59;18.50;99.90
12634;DHT22;6382;48.614;8.880;2023-09-18T11:26:30;18.50;99.90
12634;DHT22;6382;48.614;8.880;2023-09-18T11:29:04;18.50;99.90
12634;DHT22;6382;48.614;8.880;2023-09-18T11:31:48;18.50;99.90
12634;DHT22;6382;48.614;8.880;2023-09-18T11:34:25;18.50;99.90
12634;DHT22;6382;48.614;8.880;2023-09-18T11:37:19;18.50;99.90
12634;DHT22;6382;48.614;8.880;2023-09-18T11:39:46;18.40;99.90
12634;DHT22;6382;48.614;8.880;2023-09-18T11:42:14;18.50;99.90
12634;DHT22;6382;48.614;8.880;2023-09-18T11:44:43;18.50;99.90
12634;DHT22;6382;48.614;8.880;2023-09-18T11:47:16;18.50;99.90
12634;DHT22;6382;48.614;8.880;2023-09-18T11:49:47;18.50;99.90
12634;DHT22;6382;48.614;8.880;2023-09-18T11:52:25;18.50;99.90
12634;DHT22;6382;48.614;8.880;2023-09-18T11:54:53;18.60;99.90
12634;DHT22;6382;48.614;8.880;2023-09-18T11:57:21;18.60;99.90
12634;DHT22;6382;48.614;8.880;2023-09-18T11:59:48;18.70;99.90
12634;DHT22;6382;48.614;8.880;2023-09-18T12:02:30;18.70;99.90
12634;DHT22;6382;48.614;8.880;2023-09-18T12:05:11;18.80;99.90
12634;DHT22;6382;48.614;8.880;2023-09-18T12:07:40;18.80;99.90
12634;DHT22;6382;48.614;8.880;2023-09-18T12:10:15;18.80;99.90
12634;DHT22;6382;48.614;8.880;2023-09-18T12:12:44;18.80;99.90
12634;DHT22;6382;48.614;8.880;2023-09-18T12:15:11;18.80;99.90
12634;DHT22;6382;48.614;8.880;2023-09-18T12:17:38;18.80;99.90
12634;DHT22;6382;48.614;8.880;2023-09-18T12:20:05;18.90;99.90
12634;DHT22;6382;48.614;8.880;2023-09-18T12:22:32;18.90;99.90
12634;DHT22;6382;48.614;8.880;2023-09-18T12:25:09;19.00;99.90
12634;DHT22;6382;48.614;8.880;2023-09-18T12:27:40;19.00;99.90
12634;DHT22;6382;48.614;8.880;2023-09-18T12:30:07;19.10;99.90
12634;DHT22;6382;48.614;8.880;2023-09-18T12:32:38;19.20;99.90
12634;DHT22;6382;48.614;8.880;2023-09-18T12:35:06;19.40;99.90
12634;DHT22;6382;48.614;8.880;2023-09-18T12:37:42;19.50;99.90
12634;DHT22;6382;48.614;8.880;2023-09-18T12:40:25;19.60;99.90
12634;DHT22;6382;48.614;8.880;2023-09-18T12:42:54;19.60;99.90
12634;DHT22;6382;48.614;8.880;2023-09-18T12:45:22;19.60;99.90
12634;DHT22;6382;48.614;8.880;2023-09-18T12:47:49;19.60;99.90
12634;DHT22;6382;48.614;8.880;2023-09-18T12:50:16;19.60;99.90
12634;DHT22;6382;48.614;8.880;2023-09-18T12:52:43;19.70;99.90
12634;DHT22;6382;48.614;8.880;2023-09-18T12:55:20;19.80;99.90
12634;DHT22;6382;48.614;8.880;2023-09-18T12:57:47;19.80;99.90
12634;DHT22;6382;48.614;8.880;2023-09-18T13:00:17;19.90;99.90
12634;DHT22;6382;48.614;8.880;2023-09-18T13:02:46;20.00;99.90
12634;DHT22;6382;48.614;8.880;2023-09-18T13:05:17;20.10;99.90
12634;DHT22;6382;48.614;8.880;2023-09-18T13:07:45;20.20;99.90
12634;DHT22;6382;48.614;8.880;2023-09-18T13:10:14;20.20;99.90
12634;DHT22;6382;48.614;8.880;2023-09-18T13:12:45;20.30;99.90
12634;DHT22;6382;48.614;8.880;2023-09-18T13:15:13;20.30;99.90
12634;DHT22;6382;48.614;8.880;2023-09-18T13:17:41;20.30;99.90
12634;DHT22;6382;48.614;8.880;2023-09-18T13:20:12;20.30;99.90
12634;DHT22;6382;48.614;8.880;2023-09-18T13:22:40;20.30;99.90
12634;DHT22;6382;48.614;8.880;2023-09-18T13:25:10;20.40;99.90
12634;DHT22;6382;48.614;8.880;2023-09-18T13:27:40;20.40;99.90
12634;DHT22;6382;48.614;8.880;2023-09-18T13:30:08;20.50;99.90
12634;DHT22;6382;48.614;8.880;2023-09-18T13:32:36;20.50;99.90
12634;DHT22;6382;48.614;8.880;2023-09-18T13:35:06;20.50;99.90
12634;DHT22;6382;48.614;8.880;2023-09-18T13:37:33;20.50;99.90
12634;DHT22;6382;48.614;8.880;2023-09-18T13:40:01;20.50;99.90
12634;DHT22;6382;48.614;8.880;2023-09-18T13:42:29;20.40;99.90
12634;DHT22;6382;48.614;8.880;2023-09-18T13:44:59;20.40;99.90
12634;DHT22;6382;48.614;8.880;2023-09-18T13:47:28;20.40;99.90
12634;DHT22;6382;48.614;8.880;2023-09-18T13:49:56;20.30;99.90
12634;DHT22;6382;48.614;8.880;2023-09-18T13:52:29;20.30;99.90
12634;DHT22;6382;48.614;8.880;2023-09-18T13:54:56;20.30;99.90
12634;DHT22;6382;48.614;8.880;2023-09-18T13:57:24;20.40;99.90
12634;DHT22;6382;48.614;8.880;2023-09-18T13:59:51;20.40;99.90
12634;DHT22;6382;48.614;8.880;2023-09-18T14:02:18;20.50;99.90
12634;DHT22;6382;48.614;8.880;2023-09-18T14:04:45;20.50;99.90
12634;DHT22;6382;48.614;8.880;2023-09-18T14:07:12;20.50;99.90
12634;DHT22;6382;48.614;8.880;2023-09-18T14:09:39;20.50;99.90
12634;DHT22;6382;48.614;8.880;2023-09-18T14:12:06;20.40;99.90
12634;DHT22;6382;48.614;8.880;2023-09-18T14:14:34;20.40;99.90
12634;DHT22;6382;48.614;8.880;2023-09-18T14:17:02;20.30;99.90
12634;DHT22;6382;48.614;8.880;2023-09-18T14:19:30;20.20;99.90
12634;DHT22;6382;48.614;8.880;2023-09-18T14:21:57;20.20;99.90
12634;DHT22;6382;48.614;8.880;2023-09-18T14:24:24;20.20;99.90
12634;DHT22;6382;48.614;8.880;2023-09-18T14:26:52;20.20;99.90
12634;DHT22;6382;48.614;8.880;2023-09-18T14:29:19;20.30;99.90
12634;DHT22;6382;48.614;8.880;2023-09-18T14:31:46;20.40;99.90
12634;DHT22;6382;48.614;8.880;2023-09-18T14:34:13;20.50;99.90
12634;DHT22;6382;48.614;8.880;2023-09-18T14:36:40;20.50;99.90
12634;DHT22;6382;48.614;8.880;2023-09-18T14:39:14;20.60;99.90
12634;DHT22;6382;48.614;8.880;2023-09-18T14:41:40;20.60;99.90
12634;DHT22;6382;48.614;8.880;2023-09-18T14:44:08;20.50;99.90
12634;DHT22;6382;48.614;8.880;2023-09-18T14:46:38;20.50;99.90
12634;DHT22;6382;48.614;8.880;2023-09-18T14:49:05;20.50;99.90
12634;DHT22;6382;48.614;8.880;2023-09-18T14:51:34;20.40;99.90
12634;DHT22;6382;48.614;8.880;2023-09-18T14:54:01;20.40;99.90
12634;DHT22;6382;48.614;8.880;2023-09-18T14:56:28;20.30;99.90
12634;DHT22;6382;48.614;8.880;2023-09-18T14:58:55;20.20;99.90
12634;DHT22;6382;48.614;8.880;2023-09-18T15:01:23;20.20;99.90
12634;DHT22;6382;48.614;8.880;2023-09-18T15:03:50;20.10;99.90
12634;DHT22;6382;48.614;8.880;2023-09-18T15:06:17;20.10;99.90
12634;DHT22;6382;48.614;8.880;2023-09-18T15:08:45;20.00;99.90
12634;DHT22;6382;48.614;8.880;2023-09-18T15:11:12;20.00;99.90
12634;DHT22;6382;48.614;8.880;2023-09-18T15:13:45;20.00;99.90
12634;DHT22;6382;48.614;8.880;2023-09-18T15:16:12;20.00;99.90
12634;DHT22;6382;48.614;8.880;2023-09-18T15:18:39;20.00;99.90
12634;DHT22;6382;48.614;8.880;2023-09-18T15:21:06;20.10;99.90
12634;DHT22;6382;48.614;8.880;2023-09-18T15:23:33;20.20;99.90
12634;DHT22;6382;48.614;8.880;2023-09-18T15:26:00;20.20;99.90
12634;DHT22;6382;48.614;8.880;2023-09-18T15:28:28;20.30;99.90
12634;DHT22;6382;48.614;8.880;2023-09-18T15:30:56;20.30;99.90
12634;DHT22;6382;48.614;8.880;2023-09-18T15:33:23;20.20;99.90
12634;DHT22;6382;48.614;8.880;2023-09-18T15:35:52;20.20;99.90
12634;DHT22;6382;48.614;8.880;2023-09-18T15:38:19;20.20;99.90
12634;DHT22;6382;48.614;8.880;2023-09-18T15:40:48;20.20;99.90
12634;DHT22;6382;48.614;8.880;2023-09-18T15:43:15;20.20;99.90
12634;DHT22;6382;48.614;8.880;2023-09-18T15:45:44;20.20;99.90
12634;DHT22;6382;48.614;8.880;2023-09-18T15:48:11;20.20;99.90
12634;DHT22;6382;48.614;8.880;2023-09-18T15:50:38;20.10;99.90
12634;DHT22;6382;48.614;8.880;2023-09-18T15:53:05;20.10;99.90
12634;DHT22;6382;48.614;8.880;2023-09-18T15:55:32;20.00;99.90
12634;DHT22;6382;48.614;8.880;2023-09-18T15:57:58;19.90;99.90
12634;DHT22;6382;48.614;8.880;2023-09-18T16:00:25;19.80;99.90
12634;DHT22;6382;48.614;8.880;2023-09-18T16:02:52;19.70;99.90
12634;DHT22;6382;48.614;8.880;2023-09-18T16:05:19;19.70;99.90